Back to Top

Language: 

My Weather Underground Personal Weather Station Historical Data with Graphs...

Delerius Weather Station Historical Data
Daily Summary for August 29, 2017 Units:  Metric    English   Both
« Previous Day
Next Day »
Daily Weekly Monthly Yearly Custom
  High: Low: Average:
Temperature: 19.2 °C 12.4 °C 15.9 °C
Dew Point: 15.1 °C 7.8 °C 11.6 °C
Humidity: 91 % 52 % 77 %
Wind Speed: 19.3 km/h 0 km/h 7.1 km/h
Wind Gust: 32.2 km/h - -
Wind:- - WNW
Pressure: 1013.8 hPa 1012.1 hPa -
Precipitation: 0 mm    
Historical Graphs
 
 
Tabular Data for August 29, 2017
Time Temperature Dew Point Pressure Wind Wind Speed Wind Gust Humidity Rainfall Rate (Hourly) solar Conditions
00:01 16.3 °C 13.8 °C 1013.4 hPa Calm     85 % 0 mm 0 W/m2
00:06 16.2 °C 13.7 °C 1013.4 hPa Calm   1.6 km/h 85 % 0 mm 0 W/m2
00:11 16.2 °C 13.7 °C 1013.4 hPa NW 1.6 km/h 8 km/h 85 % 0 mm 0 W/m2
00:16 16.1 °C 13.8 °C 1013.4 hPa WNW 4.8 km/h 11.3 km/h 86 % 0 mm 0 W/m2
00:21 16.1 °C 13.8 °C 1013.4 hPa WNW 3.2 km/h 11.3 km/h 86 % 0 mm 0 W/m2
00:26 16.1 °C 13.8 °C 1013.4 hPa Calm   8 km/h 86 % 0 mm 0 W/m2
00:27 16.1 °C 13.8 °C 1013.4 hPa Calm   8 km/h 86 % 0 mm 0 W/m2
00:32 16 °C 13.7 °C 1013.4 hPa Calm     86 % 0 mm 0 W/m2
00:36 15.9 °C 13.6 °C 1013.1 hPa Calm     86 % 0 mm 0 W/m2
00:42 15.8 °C 13.4 °C 1013.1 hPa Calm     86 % 0 mm 0 W/m2
00:47 15.8 °C 13.7 °C 1013.1 hPa Calm     87 % 0 mm 0 W/m2
00:52 15.8 °C 13.7 °C 1013.1 hPa Calm   1.6 km/h 87 % 0 mm 0 W/m2
00:57 15.7 °C 13.6 °C 1013.1 hPa Calm   1.6 km/h 87 % 0 mm 0 W/m2
01:02 15.7 °C 13.7 °C 1013.1 hPa Calm     88 % 0 mm 0 W/m2
01:07 15.6 °C 13.6 °C 1013.1 hPa Calm     88 % 0 mm 0 W/m2
01:12 15.6 °C 13.4 °C 1013.1 hPa Calm   1.6 km/h 87 % 0 mm 0 W/m2
01:17 15.6 °C 13.6 °C 1013.1 hPa West 1.6 km/h 8 km/h 88 % 0 mm 0 W/m2
01:22 15.5 °C 13.5 °C 1013.1 hPa West 1.6 km/h 8 km/h 88 % 0 mm 0 W/m2
01:27 15.4 °C 13.4 °C 1012.8 hPa Calm   6.4 km/h 88 % 0 mm 0 W/m2
01:32 15.4 °C 13.4 °C 1012.8 hPa Calm   3.2 km/h 88 % 0 mm 0 W/m2
01:37 15.3 °C 13.3 °C 1013.1 hPa Calm   3.2 km/h 88 % 0 mm 0 W/m2
01:42 15.3 °C 13.5 °C 1013.1 hPa Calm   3.2 km/h 89 % 0 mm 0 W/m2
01:47 15.3 °C 13.3 °C 1013.1 hPa Calm     88 % 0 mm 0 W/m2
01:52 15.3 °C 13.3 °C 1013.1 hPa Calm     88 % 0 mm 0 W/m2
01:57 15.2 °C 13.4 °C 1013.1 hPa Calm     89 % 0 mm 0 W/m2
02:02 15.2 °C 13.4 °C 1013.1 hPa Calm   8 km/h 89 % 0 mm 0 W/m2
02:07 15.1 °C 13.3 °C 1013.1 hPa West 1.6 km/h 8 km/h 89 % 0 mm 0 W/m2
02:12 15.1 °C 13.3 °C 1013.1 hPa Calm   4.8 km/h 89 % 0 mm 0 W/m2
02:17 15.1 °C 13.3 °C 1013.1 hPa Calm     89 % 0 mm 0 W/m2
02:22 15.1 °C 13.3 °C 1012.8 hPa Calm     89 % 0 mm 0 W/m2
02:27 15.1 °C 13.4 °C 1012.8 hPa Calm   9.7 km/h 90 % 0 mm 0 W/m2
02:32 15.1 °C 13.3 °C 1013.1 hPa Calm   9.7 km/h 89 % 0 mm 0 W/m2
02:37 15.1 °C 13.4 °C 1013.1 hPa Calm   1.6 km/h 90 % 0 mm 0 W/m2
02:42 15 °C 13.4 °C 1013.1 hPa Calm   6.4 km/h 90 % 0 mm 0 W/m2
02:47 15.1 °C 13.4 °C 1012.8 hPa Calm   6.4 km/h 90 % 0 mm 0 W/m2
02:52 15.1 °C 13.4 °C 1013.1 hPa Calm   6.4 km/h 90 % 0 mm 0 W/m2
02:57 15.1 °C 13.4 °C 1013.1 hPa Calm   6.4 km/h 90 % 0 mm 0 W/m2
03:02 15.1 °C 13.4 °C 1013.1 hPa Calm   4.8 km/h 90 % 0 mm 0 W/m2
03:07 15.1 °C 13.4 °C 1013.1 hPa WNW 1.6 km/h 11.3 km/h 90 % 0 mm 0 W/m2
03:12 15.2 °C 13.7 °C 1012.8 hPa WNW 1.6 km/h 11.3 km/h 91 % 0 mm 0 W/m2
03:17 15.3 °C 13.8 °C 1012.8 hPa Calm   8 km/h 91 % 0 mm 0 W/m2
03:22 15.4 °C 13.8 °C 1012.8 hPa NW 3.2 km/h 9.7 km/h 90 % 0 mm 0 W/m2
03:27 15.6 °C 13.9 °C 1012.8 hPa NW 1.6 km/h 9.7 km/h 90 % 0 mm 0 W/m2
03:32 15.6 °C 13.9 °C 1012.8 hPa Calm   1.6 km/h 90 % 0 mm 0 W/m2
03:37 15.7 °C 13.9 °C 1012.8 hPa Calm   1.6 km/h 89 % 0 mm 0 W/m2
03:42 15.7 °C 13.9 °C 1012.8 hPa Calm   3.2 km/h 89 % 0 mm 0 W/m2
03:47 15.8 °C 14 °C 1012.8 hPa WNW 1.6 km/h 9.7 km/h 89 % 0 mm 0 W/m2
03:52 15.9 °C 14.3 °C 1012.8 hPa West 6.4 km/h 14.5 km/h 90 % 0 mm 0 W/m2
03:57 16.1 °C 14.4 °C 1012.8 hPa West 8 km/h 14.5 km/h 90 % 0 mm 0 W/m2
04:02 16.2 °C 14.4 °C 1012.8 hPa WSW 9.7 km/h 17.7 km/h 89 % 0 mm 0 W/m2
04:07 16.3 °C 14.5 °C 1012.8 hPa WSW 9.7 km/h 17.7 km/h 89 % 0 mm 0 W/m2
04:14 16.4 °C 14.4 °C 1012.8 hPa West 9.7 km/h 17.7 km/h 88 % 0 mm 0 W/m2
04:21 16.6 °C 14.6 °C 1012.8 hPa West 9.7 km/h 17.7 km/h 88 % 0 mm 0 W/m2
04:22 16.6 °C 14.6 °C 1012.8 hPa West 9.7 km/h 17.7 km/h 88 % 0 mm 0 W/m2
04:24 16.6 °C 14.6 °C 1012.8 hPa West 9.7 km/h 14.5 km/h 88 % 0 mm 0 W/m2
04:26 16.6 °C 14.6 °C 1012.8 hPa West 8 km/h 14.5 km/h 88 % 0 mm 0 W/m2
04:29 16.6 °C 14.6 °C 1012.8 hPa WSW 8 km/h 14.5 km/h 88 % 0 mm 0 W/m2
04:31 16.6 °C 14.6 °C 1012.8 hPa WSW 8 km/h 14.5 km/h 88 % 0 mm 0 W/m2
04:34 16.7 °C 14.5 °C 1012.8 hPa WSW 8 km/h 14.5 km/h 87 % 0 mm 0 W/m2
04:38 16.7 °C 14.5 °C 1012.8 hPa WSW 8 km/h 12.9 km/h 87 % 0 mm 0 W/m2
04:43 16.7 °C 14.5 °C 1012.8 hPa WSW 8 km/h 14.5 km/h 87 % 0 mm 0 W/m2
04:48 16.8 °C 14.6 °C 1012.8 hPa West 9.7 km/h 14.5 km/h 87 % 0 mm 0 W/m2
04:53 16.8 °C 14.6 °C 1012.8 hPa West 8 km/h 12.9 km/h 87 % 0 mm 0 W/m2
04:58 16.8 °C 14.6 °C 1012.8 hPa West 6.4 km/h 14.5 km/h 87 % 0 mm 0 W/m2
05:03 16.8 °C 14.6 °C 1012.8 hPa West 8 km/h 14.5 km/h 87 % 0 mm 0 W/m2
05:08 16.8 °C 14.6 °C 1012.4 hPa WSW 8 km/h 12.9 km/h 87 % 0 mm 0 W/m2
05:13 16.8 °C 14.6 °C 1012.4 hPa WSW 6.4 km/h 12.9 km/h 87 % 0 mm 0 W/m2
05:18 16.8 °C 14.6 °C 1012.4 hPa SW 8 km/h 14.5 km/h 87 % 0 mm 0 W/m2
05:24 16.8 °C 14.8 °C 1012.4 hPa WSW 6.4 km/h 14.5 km/h 88 % 0 mm 0 W/m2
05:29 16.7 °C 14.7 °C 1012.4 hPa WSW 4.8 km/h 11.3 km/h 88 % 0 mm 0 W/m2
05:34 16.7 °C 14.7 °C 1012.4 hPa SW 4.8 km/h 9.7 km/h 88 % 0 mm 0 W/m2
05:39 16.7 °C 14.9 °C 1012.4 hPa SSW 4.8 km/h 9.7 km/h 89 % 0 mm 0 W/m2
05:44 16.6 °C 14.8 °C 1012.4 hPa SSW 1.6 km/h 8 km/h 89 % 0 mm 0 W/m2
05:49 16.6 °C 14.8 °C 1012.4 hPa Calm   3.2 km/h 89 % 0 mm 0 W/m2
05:54 16.5 °C 14.7 °C 1012.4 hPa Calm     89 % 0 mm 0 W/m2
05:59 16.5 °C 14.7 °C 1012.1 hPa Calm   8 km/h 89 % 0 mm 0 W/m2
06:04 16.5 °C 14.7 °C 1012.1 hPa SSW 1.6 km/h 8 km/h 89 % 0 mm 0 W/m2
06:09 16.5 °C 14.7 °C 1012.1 hPa SSW 3.2 km/h 8 km/h 89 % 0 mm 0 W/m2
06:14 16.5 °C 14.7 °C 1012.1 hPa SSW 1.6 km/h 8 km/h 89 % 0 mm 0 W/m2
06:19 16.5 °C 14.7 °C 1012.1 hPa SSW 1.6 km/h 8 km/h 89 % 0 mm 0 W/m2
06:24 16.5 °C 14.7 °C 1012.1 hPa SW 3.2 km/h 9.7 km/h 89 % 0 mm 0 W/m2
06:29 16.5 °C 14.7 °C 1012.1 hPa SW 1.6 km/h 9.7 km/h 89 % 0 mm 0 W/m2
06:34 16.5 °C 14.7 °C 1012.1 hPa Calm   3.2 km/h 89 % 0 mm 5 W/m2
06:39 16.5 °C 14.7 °C 1012.1 hPa Calm     89 % 0 mm 0 W/m2
06:44 16.5 °C 14.7 °C 1012.1 hPa Calm     89 % 0 mm 5 W/m2
06:49 16.5 °C 14.7 °C 1012.4 hPa Calm     89 % 0 mm 5 W/m2
06:54 16.5 °C 14.7 °C 1012.1 hPa Calm   8 km/h 89 % 0 mm 14 W/m2
06:59 16.6 °C 14.9 °C 1012.4 hPa West 3.2 km/h 11.3 km/h 90 % 0 mm 19 W/m2
07:04 16.6 °C 14.9 °C 1012.4 hPa WSW 4.8 km/h 11.3 km/h 90 % 0 mm 18 W/m2
07:09 16.6 °C 14.9 °C 1012.4 hPa West 6.4 km/h 16.1 km/h 90 % 0 mm 16 W/m2
07:14 16.6 °C 14.9 °C 1012.4 hPa West 9.7 km/h 16.1 km/h 90 % 0 mm 19 W/m2
07:19 16.7 °C 15.1 °C 1012.4 hPa WNW 11.3 km/h 16.1 km/h 90 % 0 mm 28 W/m2
07:24 16.7 °C 15.1 °C 1012.4 hPa WNW 11.3 km/h 20.9 km/h 90 % 0 mm 21 W/m2
07:29 16.4 °C 14.6 °C 1012.4 hPa NW 11.3 km/h 24.1 km/h 89 % 0 mm 21 W/m2
07:34 16.1 °C 14.3 °C 1012.4 hPa NW 12.9 km/h 24.1 km/h 89 % 0 mm 49 W/m2
07:39 15.9 °C 14.3 °C 1012.4 hPa NW 9.7 km/h 17.7 km/h 90 % 0 mm 42 W/m2
07:44 15.8 °C 14.3 °C 1012.4 hPa NW 8 km/h 17.7 km/h 91 % 0 mm 49 W/m2
07:49 15.7 °C 14.2 °C 1012.4 hPa NW 8 km/h 16.1 km/h 91 % 0 mm 47 W/m2
07:54 15.6 °C 14.1 °C 1012.4 hPa NW 8 km/h 14.5 km/h 91 % 0 mm 32 W/m2
07:59 15.5 °C 14.1 °C 1012.4 hPa NW 8 km/h 16.1 km/h 91 % 0 mm 58 W/m2
08:04 15.3 °C 13.8 °C 1012.4 hPa WNW 9.7 km/h 17.7 km/h 91 % 0 mm 56 W/m2
08:09 15.3 °C 13.8 °C 1012.4 hPa WNW 9.7 km/h 17.7 km/h 91 % 0 mm 49 W/m2
08:14 15.2 °C 13.7 °C 1012.8 hPa WNW 9.7 km/h 19.3 km/h 91 % 0 mm 46 W/m2
08:19 15.2 °C 13.7 °C 1012.8 hPa WNW 11.3 km/h 19.3 km/h 91 % 0 mm 56 W/m2
08:24 15.2 °C 13.7 °C 1012.8 hPa WNW 9.7 km/h 17.7 km/h 91 % 0 mm 47 W/m2
08:29 15.2 °C 13.6 °C 1012.8 hPa WNW 9.7 km/h 17.7 km/h 90 % 0 mm 47 W/m2
08:34 15.2 °C 13.6 °C 1012.8 hPa WNW 9.7 km/h 17.7 km/h 90 % 0 mm 58 W/m2
08:39 15.2 °C 13.7 °C 1012.8 hPa WNW 9.7 km/h 16.1 km/h 91 % 0 mm 74 W/m2
08:44 15.2 °C 13.7 °C 1013.1 hPa WNW 8 km/h 14.5 km/h 91 % 0 mm 70 W/m2
08:49 15.3 °C 13.7 °C 1013.1 hPa WNW 8 km/h 14.5 km/h 90 % 0 mm 53 W/m2
08:54 15.2 °C 13.6 °C 1013.1 hPa WNW 9.7 km/h 14.5 km/h 90 % 0 mm 51 W/m2
08:59 15.3 °C 13.7 °C 1013.1 hPa WNW 9.7 km/h 14.5 km/h 90 % 0 mm 40 W/m2
09:04 15.2 °C 13.4 °C 1013.1 hPa WNW 9.7 km/h 16.1 km/h 89 % 0 mm 49 W/m2
09:09 15.2 °C 13.4 °C 1013.1 hPa NW 11.3 km/h 19.3 km/h 89 % 0 mm 65 W/m2
09:14 15.2 °C 13.4 °C 1013.1 hPa NW 9.7 km/h 19.3 km/h 89 % 0 mm 90 W/m2
09:19 15.2 °C 13.4 °C 1013.1 hPa NW 6.4 km/h 16.1 km/h 89 % 0 mm 135 W/m2
09:24 15.3 °C 13.5 °C 1012.8 hPa NW 6.4 km/h 17.7 km/h 89 % 0 mm 135 W/m2
09:29 15.4 °C 13.4 °C 1012.8 hPa NW 8 km/h 17.7 km/h 88 % 0 mm 188 W/m2
09:34 15.5 °C 13.5 °C 1012.8 hPa NW 8 km/h 14.5 km/h 88 % 0 mm 139 W/m2
09:39 15.7 °C 13.6 °C 1013.1 hPa NW 6.4 km/h 14.5 km/h 87 % 0 mm 130 W/m2
09:44 15.7 °C 13.4 °C 1013.1 hPa NW 8 km/h 14.5 km/h 86 % 0 mm 146 W/m2
09:49 15.7 °C 13.4 °C 1013.1 hPa NW 8 km/h 16.1 km/h 86 % 0 mm 151 W/m2
09:54 15.8 °C 13.3 °C 1013.1 hPa NW 9.7 km/h 16.1 km/h 85 % 0 mm 153 W/m2
09:59 15.9 °C 13.4 °C 1013.1 hPa NW 8 km/h 16.1 km/h 85 % 0 mm 162 W/m2
10:04 15.9 °C 13.4 °C 1013.1 hPa NW 8 km/h 17.7 km/h 85 % 0 mm 153 W/m2
10:05 16 °C 13.5 °C 1013.1 hPa NW 8 km/h 17.7 km/h 85 % 0 mm 153 W/m2
10:09 15.9 °C 13 °C 1013.1 hPa WNW 11.3 km/h 24.1 km/h 83 % 0 mm 141 W/m2
10:15 15.9 °C 12.8 °C 1013.4 hPa WNW 12.9 km/h 24.1 km/h 82 % 0 mm 127 W/m2
10:20 15.9 °C 12.7 °C 1013.4 hPa NW 12.9 km/h 22.5 km/h 81 % 0 mm 183 W/m2
10:25 15.9 °C 12.7 °C 1013.4 hPa NW 12.9 km/h 22.5 km/h 81 % 0 mm 202 W/m2
10:30 16 °C 12.7 °C 1013.4 hPa NW 12.9 km/h 25.7 km/h 81 % 0 mm 206 W/m2
10:35 15.9 °C 12.7 °C 1013.4 hPa NW 12.9 km/h 25.7 km/h 81 % 0 mm 162 W/m2
10:40 15.9 °C 12.7 °C 1013.4 hPa WNW 12.9 km/h 20.9 km/h 81 % 0 mm 130 W/m2
10:45 15.8 °C 12.9 °C 1013.8 hPa WNW 12.9 km/h 20.9 km/h 83 % 0 mm 79 W/m2
10:50 15.7 °C 13 °C 1013.8 hPa WNW 12.9 km/h 20.9 km/h 84 % 0 mm 70 W/m2
10:55 15.4 °C 12.5 °C 1013.8 hPa WNW 12.9 km/h 22.5 km/h 83 % 0 mm 121 W/m2
11:00 15.1 °C 12.2 °C 1013.8 hPa NW 12.9 km/h 25.7 km/h 83 % 0 mm 149 W/m2
11:05 15.1 °C 12.2 °C 1013.8 hPa NW 11.3 km/h 25.7 km/h 83 % 0 mm 230 W/m2
11:10 15.2 °C 12.2 °C 1013.8 hPa WNW 9.7 km/h 17.7 km/h 82 % 0 mm 306 W/m2
11:15 15.4 °C 11.9 °C 1013.8 hPa WNW 11.3 km/h 20.9 km/h 80 % 0 mm 362 W/m2
11:20 15.7 °C 12.3 °C 1013.4 hPa WNW 11.3 km/h 20.9 km/h 80 % 0 mm 439 W/m2
11:25 16.1 °C 12.3 °C 1013.4 hPa WNW 11.3 km/h 22.5 km/h 78 % 0 mm 461 W/m2
11:30 16.4 °C 12.3 °C 1013.4 hPa WNW 11.3 km/h 22.5 km/h 77 % 0 mm 397 W/m2
11:35 16.6 °C 12.3 °C 1013.4 hPa WNW 12.9 km/h 20.9 km/h 76 % 0 mm 334 W/m2
11:40 16.8 °C 12.3 °C 1013.1 hPa WNW 12.9 km/h 20.9 km/h 75 % 0 mm 281 W/m2
11:45 16.9 °C 12.2 °C 1013.4 hPa WNW 12.9 km/h 25.7 km/h 74 % 0 mm 250 W/m2
11:50 16.8 °C 11.9 °C 1013.1 hPa WNW 14.5 km/h 25.7 km/h 73 % 0 mm 828 W/m2
11:55 17.1 °C 12 °C 1013.1 hPa WNW 16.1 km/h 24.1 km/h 72 % 0 mm 694 W/m2
12:00 17.4 °C 11.9 °C 1013.1 hPa WNW 14.5 km/h 24.1 km/h 70 % 0 mm 726 W/m2
12:05 17.8 °C 12.3 °C 1013.1 hPa WNW 12.9 km/h 22.5 km/h 70 % 0 mm 793 W/m2
12:10 18 °C 12 °C 1012.8 hPa West 12.9 km/h 20.9 km/h 68 % 0 mm 770 W/m2
12:15 18 °C 11.8 °C 1013.1 hPa West 16.1 km/h 25.7 km/h 67 % 0 mm 844 W/m2
12:20 18 °C 11.8 °C 1012.8 hPa West 14.5 km/h 25.7 km/h 67 % 0 mm 824 W/m2
12:25 18.1 °C 11.9 °C 1012.8 hPa West 14.5 km/h 24.1 km/h 67 % 0 mm 872 W/m2
12:30 18.4 °C 12.2 °C 1013.1 hPa WNW 14.5 km/h 25.7 km/h 67 % 0 mm 963 W/m2
12:35 18.7 °C 11.7 °C 1013.1 hPa WNW 14.5 km/h 25.7 km/h 64 % 0 mm 925 W/m2
12:40 18.9 °C 11.9 °C 1013.1 hPa West 14.5 km/h 25.7 km/h 64 % 0 mm 824 W/m2
12:43 18.9 °C 11.4 °C 1013.1 hPa West 12.9 km/h 22.5 km/h 62 % 0 mm 179 W/m2
12:48 18.7 °C 11 °C 1013.1 hPa West 12.9 km/h 22.5 km/h 61 % 0 mm 315 W/m2
12:53 18.5 °C 10.8 °C 1013.1 hPa West 14.5 km/h 24.1 km/h 61 % 0 mm 355 W/m2
12:58 18.4 °C 11 °C 1013.1 hPa West 12.9 km/h 24.1 km/h 62 % 0 mm 234 W/m2
13:03 18.3 °C 10.7 °C 1013.1 hPa WNW 11.3 km/h 20.9 km/h 61 % 0 mm 297 W/m2
13:08 18.3 °C 10.7 °C 1013.1 hPa WNW 9.7 km/h 16.1 km/h 61 % 0 mm 290 W/m2
13:13 18.3 °C 10.7 °C 1012.8 hPa West 11.3 km/h 22.5 km/h 61 % 0 mm 350 W/m2
13:18 18.3 °C 10.4 °C 1012.8 hPa WNW 14.5 km/h 22.5 km/h 60 % 0 mm 267 W/m2
13:23 18.3 °C 10.9 °C 1012.8 hPa WNW 11.3 km/h 22.5 km/h 62 % 0 mm 534 W/m2
13:28 18.6 °C 10.9 °C 1013.1 hPa WNW 9.7 km/h 19.3 km/h 61 % 0 mm 752 W/m2
13:33 18.8 °C 10.6 °C 1013.1 hPa WNW 14.5 km/h 25.7 km/h 59 % 0 mm 584 W/m2
13:38 18.8 °C 10.3 °C 1013.1 hPa WNW 17.7 km/h 29 km/h 58 % 0 mm 469 W/m2
13:43 18.8 °C 10.3 °C 1013.1 hPa WNW 17.7 km/h 29 km/h 58 % 0 mm 473 W/m2
13:48 18.8 °C 10.3 °C 1013.1 hPa WNW 17.7 km/h 32.2 km/h 58 % 0 mm 469 W/m2
13:53 19.1 °C 10.7 °C 1013.1 hPa WNW 17.7 km/h 32.2 km/h 58 % 0 mm 1013 W/m2
13:58 18.9 °C 9.9 °C 1013.1 hPa WNW 19.3 km/h 32.2 km/h 56 % 0 mm 374 W/m2
14:03 18.8 °C 10.1 °C 1013.1 hPa WNW 17.7 km/h 32.2 km/h 57 % 0 mm 512 W/m2
14:08 18.9 °C 10.2 °C 1013.1 hPa WNW 17.7 km/h 29 km/h 57 % 0 mm 700 W/m2
14:14 19 °C 10 °C 1013.1 hPa WNW 16.1 km/h 29 km/h 56 % 0 mm 566 W/m2
14:19 19 °C 9.5 °C 1013.1 hPa WNW 16.1 km/h 29 km/h 54 % 0 mm 425 W/m2
14:24 18.9 °C 9.4 °C 1013.1 hPa WNW 16.1 km/h 29 km/h 54 % 0 mm 429 W/m2
14:29 19 °C 9.8 °C 1012.8 hPa WNW 14.5 km/h 29 km/h 55 % 0 mm 417 W/m2
14:34 19.1 °C 9.3 °C 1012.4 hPa West 12.9 km/h 22.5 km/h 53 % 0 mm 520 W/m2
14:39 19.2 °C 9.7 °C 1012.8 hPa West 12.9 km/h 22.5 km/h 54 % 0 mm 401 W/m2
14:44 19.2 °C 9.1 °C 1012.8 hPa WNW 12.9 km/h 22.5 km/h 52 % 0 mm 301 W/m2
14:49 19.1 °C 9.3 °C 1012.8 hPa NW 12.9 km/h 22.5 km/h 53 % 0 mm 297 W/m2
14:54 19 °C 9.2 °C 1012.8 hPa WNW 12.9 km/h 22.5 km/h 53 % 0 mm 287 W/m2
14:59 18.8 °C 9.3 °C 1012.8 hPa WNW 14.5 km/h 22.5 km/h 54 % 0 mm 248 W/m2
15:04 18.6 °C 8.8 °C 1012.8 hPa WNW 14.5 km/h 22.5 km/h 53 % 0 mm 234 W/m2
15:09 18.3 °C 8.8 °C 1012.8 hPa WNW 12.9 km/h 24.1 km/h 54 % 0 mm 209 W/m2
15:14 18.1 °C 8.9 °C 1012.8 hPa WNW 12.9 km/h 24.1 km/h 55 % 0 mm 192 W/m2
15:19 17.9 °C 8.7 °C 1012.8 hPa WNW 14.5 km/h 22.5 km/h 55 % 0 mm 192 W/m2
15:24 17.8 °C 9.2 °C 1012.8 hPa NW 12.9 km/h 22.5 km/h 57 % 0 mm 179 W/m2
15:29 17.7 °C 9.1 °C 1012.8 hPa WNW 11.3 km/h 22.5 km/h 57 % 0 mm 158 W/m2
15:34 17.6 °C 9 °C 1012.8 hPa NW 11.3 km/h 20.9 km/h 57 % 0 mm 141 W/m2
15:39 17.5 °C 9.2 °C 1012.8 hPa WNW 11.3 km/h 19.3 km/h 58 % 0 mm 149 W/m2
15:44 17.4 °C 9.1 °C 1012.8 hPa WNW 11.3 km/h 19.3 km/h 58 % 0 mm 156 W/m2
15:49 17.4 °C 9.3 °C 1012.8 hPa WNW 11.3 km/h 20.9 km/h 59 % 0 mm 156 W/m2
15:54 17.3 °C 9.4 °C 1012.8 hPa NW 11.3 km/h 20.9 km/h 60 % 0 mm 144 W/m2
16:00 17.2 °C 9.4 °C 1012.8 hPa WNW 11.3 km/h 22.5 km/h 60 % 0 mm 174 W/m2
16:05 17.1 °C 9.3 °C 1012.8 hPa WNW 12.9 km/h 22.5 km/h 60 % 0 mm 176 W/m2
16:10 17.1 °C 9.5 °C 1012.8 hPa WNW 12.9 km/h 22.5 km/h 61 % 0 mm 185 W/m2
16:15 17 °C 9.2 °C 1012.8 hPa WNW 12.9 km/h 25.7 km/h 60 % 0 mm 169 W/m2
16:20 16.8 °C 9 °C 1013.1 hPa WNW 12.9 km/h 25.7 km/h 60 % 0 mm 171 W/m2
16:25 16.7 °C 8.9 °C 1012.8 hPa WNW 12.9 km/h 22.5 km/h 60 % 0 mm 178 W/m2
16:30 16.7 °C 8.9 °C 1012.8 hPa WNW 14.5 km/h 22.5 km/h 60 % 0 mm 172 W/m2
16:35 16.7 °C 9.1 °C 1012.8 hPa WNW 12.9 km/h 22.5 km/h 61 % 0 mm 223 W/m2
16:40 16.7 °C 8.9 °C 1012.8 hPa WNW 11.3 km/h 19.3 km/h 60 % 0 mm 216 W/m2
16:45 16.8 °C 9 °C 1012.8 hPa West 11.3 km/h 19.3 km/h 60 % 0 mm 204 W/m2
16:50 16.7 °C 9.1 °C 1012.8 hPa West 12.9 km/h 20.9 km/h 61 % 0 mm 181 W/m2
16:55 16.7 °C 9.4 °C 1012.8 hPa West 11.3 km/h 20.9 km/h 62 % 0 mm 172 W/m2
17:00 16.7 °C 9.4 °C 1012.8 hPa WNW 9.7 km/h 17.7 km/h 62 % 0 mm 172 W/m2
17:05 16.7 °C 9.4 °C 1012.8 hPa WNW 9.7 km/h 19.3 km/h 62 % 0 mm 176 W/m2
17:10 16.7 °C 9.6 °C 1012.8 hPa West 9.7 km/h 19.3 km/h 63 % 0 mm 127 W/m2
17:15 16.8 °C 9.9 °C 1012.8 hPa WNW 8 km/h 14.5 km/h 64 % 0 mm 142 W/m2
17:20 16.8 °C 9.7 °C 1013.1 hPa WNW 9.7 km/h 20.9 km/h 63 % 0 mm 169 W/m2
17:25 16.7 °C 9.6 °C 1013.1 hPa WNW 11.3 km/h 20.9 km/h 63 % 0 mm 125 W/m2
17:30 16.6 °C 9.5 °C 1013.1 hPa WNW 11.3 km/h 20.9 km/h 63 % 0 mm 109 W/m2
17:31 16.6 °C 9.5 °C 1013.1 hPa WNW 11.3 km/h 20.9 km/h 63 % 0 mm 102 W/m2
17:36 16.5 °C 9.7 °C 1012.8 hPa WNW 9.7 km/h 16.1 km/h 64 % 0 mm 79 W/m2
17:41 16.4 °C 9.6 °C 1012.8 hPa WNW 8 km/h 16.1 km/h 64 % 0 mm 72 W/m2
17:46 16.3 °C 9.5 °C 1013.1 hPa NW 8 km/h 16.1 km/h 64 % 0 mm 62 W/m2
17:51 16.2 °C 9.4 °C 1012.8 hPa NW 8 km/h 12.9 km/h 64 % 0 mm 65 W/m2
17:56 16.1 °C 9.5 °C 1013.1 hPa NW 8 km/h 16.1 km/h 65 % 0 mm 93 W/m2
18:01 16 °C 9.7 °C 1013.1 hPa NW 8 km/h 16.1 km/h 66 % 0 mm 65 W/m2
18:07 15.9 °C 9.3 °C 1013.1 hPa NW 8 km/h 16.1 km/h 65 % 0 mm 54 W/m2
18:12 15.8 °C 9.2 °C 1013.1 hPa NW 8 km/h 17.7 km/h 65 % 0 mm 46 W/m2
18:17 15.7 °C 8.9 °C 1013.1 hPa NW 11.3 km/h 19.3 km/h 64 % 0 mm 53 W/m2
18:22 15.5 °C 8.2 °C 1013.1 hPa NW 11.3 km/h 19.3 km/h 62 % 0 mm 44 W/m2
18:27 15.3 °C 8.1 °C 1013.1 hPa NW 11.3 km/h 19.3 km/h 62 % 0 mm 40 W/m2
18:32 15.3 °C 8.1 °C 1012.8 hPa NW 8 km/h 19.3 km/h 62 % 0 mm 33 W/m2
18:37 15.2 °C 7.9 °C 1012.8 hPa NW 6.4 km/h 14.5 km/h 62 % 0 mm 30 W/m2
18:42 15.2 °C 7.9 °C 1012.8 hPa WNW 6.4 km/h 12.9 km/h 62 % 0 mm 25 W/m2
18:47 15.1 °C 7.9 °C 1012.8 hPa WNW 6.4 km/h 12.9 km/h 62 % 0 mm 21 W/m2
18:52 15.1 °C 8.1 °C 1012.8 hPa NW 6.4 km/h 12.9 km/h 63 % 0 mm 16 W/m2
18:57 15 °C 7.8 °C 1012.8 hPa NW 8 km/h 16.1 km/h 62 % 0 mm 14 W/m2
19:02 14.9 °C 7.9 °C 1012.8 hPa NW 8 km/h 16.1 km/h 63 % 0 mm 16 W/m2
19:07 14.8 °C 7.8 °C 1012.8 hPa NW 6.4 km/h 14.5 km/h 63 % 0 mm 14 W/m2
19:12 14.8 °C 8.1 °C 1012.8 hPa NW 6.4 km/h 12.9 km/h 64 % 0 mm 16 W/m2
19:17 14.7 °C 8.2 °C 1012.8 hPa NW 6.4 km/h 12.9 km/h 65 % 0 mm 21 W/m2
19:22 14.6 °C 8.1 °C 1012.8 hPa NW 8 km/h 12.9 km/h 65 % 0 mm 18 W/m2
19:27 14.6 °C 8.3 °C 1012.8 hPa WNW 8 km/h 14.5 km/h 66 % 0 mm 11 W/m2
19:32 14.5 °C 8.4 °C 1012.8 hPa NW 6.4 km/h 14.5 km/h 67 % 0 mm 11 W/m2
19:37 14.4 °C 8.6 °C 1012.8 hPa NW 8 km/h 12.9 km/h 68 % 0 mm 11 W/m2
19:42 14.4 °C 8.6 °C 1012.8 hPa NW 8 km/h 12.9 km/h 68 % 0 mm 11 W/m2
19:47 14.4 °C 8.8 °C 1012.8 hPa NW 8 km/h 12.9 km/h 69 % 0 mm 7 W/m2
19:52 14.3 °C 8.9 °C 1012.8 hPa WNW 6.4 km/h 12.9 km/h 70 % 0 mm 0 W/m2
19:57 14.3 °C 8.9 °C 1013.1 hPa WNW 6.4 km/h 12.9 km/h 70 % 0 mm 0 W/m2
20:02 14.3 °C 8.9 °C 1013.1 hPa WNW 6.4 km/h 16.1 km/h 70 % 0 mm 0 W/m2
20:12 14.2 °C 9 °C 1013.1 hPa NW 8 km/h 14.5 km/h 71 % 0 mm 0 W/m2
20:17 14.1 °C 8.9 °C 1013.1 hPa NW 6.4 km/h 12.9 km/h 71 % 0 mm 0 W/m2
20:22 14.1 °C 8.9 °C 1013.1 hPa WNW 6.4 km/h 12.9 km/h 71 % 0 mm 0 W/m2
20:27 14.1 °C 8.9 °C 1013.1 hPa WNW 4.8 km/h 11.3 km/h 71 % 0 mm 0 W/m2
20:32 14 °C 9.1 °C 1012.8 hPa NW 4.8 km/h 11.3 km/h 72 % 0 mm 0 W/m2
20:37 13.9 °C 8.9 °C 1012.8 hPa NW 4.8 km/h 9.7 km/h 72 % 0 mm 0 W/m2
20:42 13.9 °C 8.9 °C 1013.1 hPa NW 4.8 km/h 9.7 km/h 72 % 0 mm 0 W/m2
20:47 13.8 °C 9.1 °C 1013.1 hPa NW 4.8 km/h 9.7 km/h 73 % 0 mm 0 W/m2
20:52 13.8 °C 9.1 °C 1013.1 hPa NW 3.2 km/h 8 km/h 73 % 0 mm 0 W/m2
20:57 13.8 °C 9.2 °C 1013.1 hPa NW 1.6 km/h 6.4 km/h 74 % 0 mm 0 W/m2
21:02 13.8 °C 9.2 °C 1013.1 hPa NW 1.6 km/h 6.4 km/h 74 % 0 mm 0 W/m2
21:07 13.8 °C 9.4 °C 1013.1 hPa NW 1.6 km/h 8 km/h 75 % 0 mm 0 W/m2
21:12 13.7 °C 9.3 °C 1013.1 hPa NW 1.6 km/h 8 km/h 75 % 0 mm 0 W/m2
21:17 13.6 °C 9.4 °C 1013.1 hPa NW 3.2 km/h 6.4 km/h 76 % 0 mm 0 W/m2
21:22 13.6 °C 9.4 °C 1013.1 hPa NW 1.6 km/h 6.4 km/h 76 % 0 mm 0 W/m2
21:27 13.5 °C 9.6 °C 1013.1 hPa Calm   4.8 km/h 77 % 0 mm 0 W/m2
21:32 13.4 °C 9.4 °C 1013.1 hPa NW 1.6 km/h 6.4 km/h 77 % 0 mm 0 W/m2
21:38 13.4 °C 9.7 °C 1013.1 hPa WNW 3.2 km/h 8 km/h 78 % 0 mm 0 W/m2
21:43 13.3 °C 9.6 °C 1013.1 hPa WNW 3.2 km/h 8 km/h 78 % 0 mm 0 W/m2
21:48 13.2 °C 9.4 °C 1013.1 hPa WNW 1.6 km/h 6.4 km/h 78 % 0 mm 0 W/m2
21:53 13.2 °C 9.4 °C 1013.1 hPa WNW 1.6 km/h 6.4 km/h 78 % 0 mm 0 W/m2
21:58 13.2 °C 9.4 °C 1012.8 hPa WNW 1.6 km/h 8 km/h 78 % 0 mm 0 W/m2
22:03 13.1 °C 9.2 °C 1012.8 hPa WNW 4.8 km/h 11.3 km/h 77 % 0 mm 0 W/m2
22:13 13 °C 9.1 °C 1012.8 hPa WSW 6.4 km/h 12.9 km/h 77 % 0 mm 0 W/m2
22:18 12.9 °C 8.9 °C 1012.8 hPa WSW 3.2 km/h 9.7 km/h 77 % 0 mm 0 W/m2
22:23 12.8 °C 8.9 °C 1012.8 hPa Calm   6.4 km/h 77 % 0 mm 0 W/m2
22:28 12.8 °C 9.1 °C 1012.8 hPa Calm   4.8 km/h 78 % 0 mm 0 W/m2
22:33 12.8 °C 8.9 °C 1012.8 hPa Calm   4.8 km/h 77 % 0 mm 0 W/m2
22:38 12.8 °C 8.9 °C 1012.4 hPa Calm   3.2 km/h 77 % 0 mm 0 W/m2
22:43 12.8 °C 8.9 °C 1012.8 hPa Calm   6.4 km/h 77 % 0 mm 0 W/m2
22:48 12.7 °C 8.8 °C 1012.8 hPa WSW 1.6 km/h 8 km/h 77 % 0 mm 0 W/m2
22:53 12.7 °C 8.8 °C 1012.8 hPa WSW 1.6 km/h 8 km/h 77 % 0 mm 0 W/m2
22:58 12.7 °C 8.8 °C 1012.8 hPa Calm   8 km/h 77 % 0 mm 0 W/m2
23:03 12.7 °C 8.8 °C 1013.1 hPa Calm   1.6 km/h 77 % 0 mm 0 W/m2
23:08 12.7 °C 8.8 °C 1013.1 hPa Calm   1.6 km/h 77 % 0 mm 0 W/m2
23:13 12.6 °C 8.7 °C 1013.1 hPa Calm   6.4 km/h 77 % 0 mm 0 W/m2
23:18 12.6 °C 8.7 °C 1013.1 hPa Calm   6.4 km/h 77 % 0 mm 0 W/m2
23:23 12.6 °C 8.9 °C 1013.1 hPa WSW 1.6 km/h 6.4 km/h 78 % 0 mm 0 W/m2
23:28 12.6 °C 8.9 °C 1013.1 hPa Calm   6.4 km/h 78 % 0 mm 0 W/m2
23:33 12.6 °C 9.1 °C 1013.1 hPa Calm     79 % 0 mm 0 W/m2
23:38 12.5 °C 8.9 °C 1013.1 hPa Calm     79 % 0 mm 0 W/m2
23:43 12.4 °C 8.8 °C 1013.1 hPa Calm     79 % 0 mm 0 W/m2
23:48 12.4 °C 9.1 °C 1013.1 hPa Calm   3.2 km/h 80 % 0 mm 0 W/m2
23:53 12.4 °C 9.1 °C 1013.1 hPa Calm   3.2 km/h 80 % 0 mm 0 W/m2
23:58 12.4 °C 9.1 °C 1013.1 hPa WSW 1.6 km/h 6.4 km/h 80 % 0 mm 0 W/m2
Delerius-Weather
Compliments of Weather Underground - 2.25 mb

Data updates at regular intervals.